CheckWX is a tool to help pilots better visualize weather data.  It is not intended as a substitute for an official pre-flight weather briefing.

01:08:22 UTC

CYLW TAF
Kelowna International Airport
Kelowna, Canada
TAF CYLW 240038Z 2401/2413 VRB03KT P6SM SCT020 OVC050 TEMPO 2401/2413 5SM -SHSN BKN015 BECMG 2401/2403 VRB03KT RMK FCST BASED ON AUTO OBS. NXT FCST BY 240700Z

Feb-24@
01:00 UTC

Feb-24 @ 01:00 UTC

Feb-24@
13:00 UTC

Feb-24 @ 13:00 UTC

TAF CYLW 240038Z 2401/2413 VRB03KT P6SM SCT020 OVC050
Wind
  • Variable at 3 KTS
Cloud Levels
  • Scattered at 2,000' AGL
  • Overcast at 5,000' AGL

Feb-24@
01:00 UTC

Feb-24 @ 01:00 UTC

Feb-24@
13:00 UTC

Feb-24 @ 13:00 UTC

TEMPO 2401/2413 5SM -SHSN BKN015

Temporary

Temporary Changes expected for less than half the time period

Conditions
Light Snow
Cloud Levels
  • Broken at 1,500' AGL

Feb-24@
01:00 UTC

Feb-24 @ 01:00 UTC

Feb-24@
13:00 UTC

Feb-24 @ 13:00 UTC

BECMG 2401/2403 VRB03KT RMK FCST BASED ON AUTO OBS. NXT FCST BY 240700Z

Becoming

Becoming Conditions expected by Sun, Feb 24, 2019 @ 03:00 UTC

Wind
  • Variable at 3 KTS
Cloud Levels
  • Scattered at 2,000' AGL
  • Overcast at 5,000' AGL